sensor_id;sensor_type;location;lat;lon;timestamp;pressure;altitude;pressure_sealevel;temperature;humidity
79236;BME280;69062;47.460;18.812;2023-05-10T00:00:31;100419.78;;;20.23;54.90
79236;BME280;69062;47.460;18.812;2023-05-10T00:01:32;100424.16;;;20.24;54.91
79236;BME280;69062;47.460;18.812;2023-05-10T00:02:34;100425.13;;;20.23;55.24
79236;BME280;69062;47.460;18.812;2023-05-10T00:03:35;100422.59;;;20.22;55.14
79236;BME280;69062;47.460;18.812;2023-05-10T00:04:37;100425.28;;;20.22;55.04
79236;BME280;69062;47.460;18.812;2023-05-10T00:05:38;100428.94;;;20.21;54.99
79236;BME280;69062;47.460;18.812;2023-05-10T00:06:40;100428.06;;;20.20;55.18
79236;BME280;69062;47.460;18.812;2023-05-10T00:07:41;100420.03;;;20.20;54.97
79236;BME280;69062;47.460;18.812;2023-05-10T00:08:45;100421.00;;;20.19;55.38
79236;BME280;69062;47.460;18.812;2023-05-10T00:09:47;100418.31;;;20.19;55.25
79236;BME280;69062;47.460;18.812;2023-05-10T00:10:49;100421.00;;;20.19;55.05
79236;BME280;69062;47.460;18.812;2023-05-10T00:11:50;100418.31;;;20.19;55.08
79236;BME280;69062;47.460;18.812;2023-05-10T00:12:51;100416.63;;;20.18;55.04
79236;BME280;69062;47.460;18.812;2023-05-10T00:13:53;100423.69;;;20.19;55.03
79236;BME280;69062;47.460;18.812;2023-05-10T00:14:54;100422.00;;;20.18;55.34
79236;BME280;69062;47.460;18.812;2023-05-10T00:15:56;100429.03;;;20.19;54.85
79236;BME280;69062;47.460;18.812;2023-05-10T00:16:57;100423.69;;;20.19;55.05
79236;BME280;69062;47.460;18.812;2023-05-10T00:17:58;100420.16;;;20.19;55.03
79236;BME280;69062;47.460;18.812;2023-05-10T00:19:00;100419.31;;;20.18;55.03
79236;BME280;69062;47.460;18.812;2023-05-10T00:20:01;100414.94;;;20.17;55.14
79236;BME280;69062;47.460;18.812;2023-05-10T00:21:03;100409.56;;;20.17;55.29
79236;BME280;69062;47.460;18.812;2023-05-10T00:22:05;100415.91;;;20.16;55.36
79236;BME280;69062;47.460;18.812;2023-05-10T00:23:06;100416.75;;;20.17;55.22
79236;BME280;69062;47.460;18.812;2023-05-10T00:24:08;100416.91;;;20.15;55.05
79236;BME280;69062;47.460;18.812;2023-05-10T00:25:09;100408.00;;;20.15;55.09
79236;BME280;69062;47.460;18.812;2023-05-10T00:26:11;100412.53;;;20.14;55.14
79236;BME280;69062;47.460;18.812;2023-05-10T00:27:13;100417.03;;;20.14;55.19
79236;BME280;69062;47.460;18.812;2023-05-10T00:28:14;100409.84;;;20.14;55.16
79236;BME280;69062;47.460;18.812;2023-05-10T00:29:16;100414.34;;;20.14;55.26
79236;BME280;69062;47.460;18.812;2023-05-10T00:30:17;100409.84;;;20.14;55.34
79236;BME280;69062;47.460;18.812;2023-05-10T00:31:19;100411.66;;;20.14;55.49
79236;BME280;69062;47.460;18.812;2023-05-10T00:32:21;100410.78;;;20.13;55.31
79236;BME280;69062;47.460;18.812;2023-05-10T00:33:22;100410.94;;;20.11;55.34
79236;BME280;69062;47.460;18.812;2023-05-10T00:34:24;100412.63;;;20.13;55.44
79236;BME280;69062;47.460;18.812;2023-05-10T00:35:25;100408.13;;;20.13;55.36
79236;BME280;69062;47.460;18.812;2023-05-10T00:36:27;100414.47;;;20.12;55.36
79236;BME280;69062;47.460;18.812;2023-05-10T00:37:28;100410.78;;;20.13;55.34
79236;BME280;69062;47.460;18.812;2023-05-10T00:38:30;100409.94;;;20.13;55.29
79236;BME280;69062;47.460;18.812;2023-05-10T00:39:32;100405.44;;;20.13;55.58
79236;BME280;69062;47.460;18.812;2023-05-10T00:40:35;100402.88;;;20.11;55.65
79236;BME280;69062;47.460;18.812;2023-05-10T00:41:39;100409.09;;;20.12;55.57
79236;BME280;69062;47.460;18.812;2023-05-10T00:42:41;100410.09;;;20.11;55.58
79236;BME280;69062;47.460;18.812;2023-05-10T00:43:43;100413.75;;;20.10;55.51
79236;BME280;69062;47.460;18.812;2023-05-10T00:44:44;100406.56;;;20.10;55.62
79236;BME280;69062;47.460;18.812;2023-05-10T00:45:46;100405.72;;;20.10;55.50
79236;BME280;69062;47.460;18.812;2023-05-10T00:46:49;100410.09;;;20.11;55.57
79236;BME280;69062;47.460;18.812;2023-05-10T00:47:51;100409.22;;;20.10;55.57
79236;BME280;69062;47.460;18.812;2023-05-10T00:48:56;100408.38;;;20.10;55.53
79236;BME280;69062;47.460;18.812;2023-05-10T00:49:59;100405.84;;;20.08;55.45
79236;BME280;69062;47.460;18.812;2023-05-10T00:51:03;100408.38;;;20.10;55.74
79236;BME280;69062;47.460;18.812;2023-05-10T00:52:04;100402.31;;;20.08;55.75
79236;BME280;69062;47.460;18.812;2023-05-10T00:53:06;100408.53;;;20.08;55.72
79236;BME280;69062;47.460;18.812;2023-05-10T00:54:13;100403.31;;;20.07;55.69
79236;BME280;69062;47.460;18.812;2023-05-10T00:55:15;100411.22;;;20.08;55.68
79236;BME280;69062;47.460;18.812;2023-05-10T00:56:17;100405.84;;;20.08;55.48
79236;BME280;69062;47.460;18.812;2023-05-10T00:57:19;100403.31;;;20.07;55.59
79236;BME280;69062;47.460;18.812;2023-05-10T00:58:20;100405.97;;;20.07;55.70
79236;BME280;69062;47.460;18.812;2023-05-10T00:59:22;100400.72;;;20.05;55.78
79236;BME280;69062;47.460;18.812;2023-05-10T01:00:24;100401.56;;;20.06;55.75
79236;BME280;69062;47.460;18.812;2023-05-10T01:01:26;100399.03;;;20.04;55.78
79236;BME280;69062;47.460;18.812;2023-05-10T01:02:28;100396.47;;;20.03;55.83
79236;BME280;69062;47.460;18.812;2023-05-10T01:03:32;100400.72;;;20.05;55.75
79236;BME280;69062;47.460;18.812;2023-05-10T01:04:34;100394.66;;;20.03;55.84
79236;BME280;69062;47.460;18.812;2023-05-10T01:05:36;100397.34;;;20.03;55.81
79236;BME280;69062;47.460;18.812;2023-05-10T01:06:39;100389.41;;;20.02;55.92
79236;BME280;69062;47.460;18.812;2023-05-10T01:07:41;100393.81;;;20.03;55.64
79236;BME280;69062;47.460;18.812;2023-05-10T01:08:42;100394.78;;;20.02;55.67
79236;BME280;69062;47.460;18.812;2023-05-10T01:09:43;100400.84;;;20.04;55.79
79236;BME280;69062;47.460;18.812;2023-05-10T01:10:46;100397.47;;;20.02;55.94
79236;BME280;69062;47.460;18.812;2023-05-10T01:11:50;100393.09;;;20.01;56.00
79236;BME280;69062;47.460;18.812;2023-05-10T01:12:51;100393.94;;;20.01;55.83
79236;BME280;69062;47.460;18.812;2023-05-10T01:13:56;100397.47;;;20.02;55.83
79236;BME280;69062;47.460;18.812;2023-05-10T01:15:00;100395.78;;;20.01;55.75
79236;BME280;69062;47.460;18.812;2023-05-10T01:16:02;100397.72;;;19.99;55.76
79236;BME280;69062;47.460;18.812;2023-05-10T01:17:05;100397.59;;;20.00;55.75
79236;BME280;69062;47.460;18.812;2023-05-10T01:18:08;100402.97;;;20.00;55.53
79236;BME280;69062;47.460;18.812;2023-05-10T01:19:19;100396.75;;;20.00;56.04
79236;BME280;69062;47.460;18.812;2023-05-10T01:20:23;100395.16;;;19.97;56.20
79236;BME280;69062;47.460;18.812;2023-05-10T01:29:10;100404.06;;;19.98;55.99
79236;BME280;69062;47.460;18.812;2023-05-10T01:30:13;100402.34;;;19.97;56.02
79236;BME280;69062;47.460;18.812;2023-05-10T01:34:02;100401.66;;;19.95;56.25
79236;BME280;69062;47.460;18.812;2023-05-10T01:35:17;100402.63;;;19.94;56.32
79236;BME280;69062;47.460;18.812;2023-05-10T01:36:32;100396.44;;;19.93;56.30
79236;BME280;69062;47.460;18.812;2023-05-10T01:37:42;100402.63;;;19.94;56.25
79236;BME280;69062;47.460;18.812;2023-05-10T01:39:16;100401.78;;;19.93;56.36
79236;BME280;69062;47.460;18.812;2023-05-10T01:40:37;100395.56;;;19.93;56.63
79236;BME280;69062;47.460;18.812;2023-05-10T01:42:04;100399.22;;;19.92;56.33
79236;BME280;69062;47.460;18.812;2023-05-10T01:43:22;100394.72;;;19.92;56.26
79236;BME280;69062;47.460;18.812;2023-05-10T01:44:37;100395.69;;;19.91;56.38
79236;BME280;69062;47.460;18.812;2023-05-10T01:46:01;100394.84;;;19.91;56.51
79236;BME280;69062;47.460;18.812;2023-05-10T01:47:33;100407.25;;;19.92;56.23
79236;BME280;69062;47.460;18.812;2023-05-10T01:48:40;100394.00;;;19.90;56.39
79236;BME280;69062;47.460;18.812;2023-05-10T01:49:53;100396.66;;;19.90;56.30
79236;BME280;69062;47.460;18.812;2023-05-10T01:50:56;100390.44;;;19.90;56.11
79236;BME280;69062;47.460;18.812;2023-05-10T01:52:05;100389.59;;;19.89;56.33
79236;BME280;69062;47.460;18.812;2023-05-10T01:53:09;100393.28;;;19.88;56.45
79236;BME280;69062;47.460;18.812;2023-05-10T01:54:14;100392.44;;;19.88;56.39
79236;BME280;69062;47.460;18.812;2023-05-10T01:55:20;100394.25;;;19.87;56.35
79236;BME280;69062;47.460;18.812;2023-05-10T01:56:26;100389.75;;;19.88;56.29
79236;BME280;69062;47.460;18.812;2023-05-10T01:57:33;100389.88;;;19.86;56.21
79236;BME280;69062;47.460;18.812;2023-05-10T01:58:36;100389.88;;;19.86;56.12
79236;BME280;69062;47.460;18.812;2023-05-10T01:59:43;100397.94;;;19.86;56.53
79236;BME280;69062;47.460;18.812;2023-05-10T02:00:49;100397.06;;;19.86;56.34
79236;BME280;69062;47.460;18.812;2023-05-10T02:01:53;100388.03;;;19.87;56.64
79236;BME280;69062;47.460;18.812;2023-05-10T02:02:55;100388.19;;;19.85;56.86
79236;BME280;69062;47.460;18.812;2023-05-10T02:03:58;100390.03;;;19.85;56.60
79236;BME280;69062;47.460;18.812;2023-05-10T02:05:02;100380.13;;;19.85;56.76
79236;BME280;69062;47.460;18.812;2023-05-10T02:06:05;100384.66;;;19.85;56.67
79236;BME280;69062;47.460;18.812;2023-05-10T02:07:09;100374.88;;;19.83;56.61
79236;BME280;69062;47.460;18.812;2023-05-10T02:08:11;100387.34;;;19.85;56.59
79236;BME280;69062;47.460;18.812;2023-05-10T02:09:16;100384.75;;;19.83;56.64
79236;BME280;69062;47.460;18.812;2023-05-10T02:10:19;100383.78;;;19.84;56.64
79236;BME280;69062;47.460;18.812;2023-05-10T02:11:23;100382.94;;;19.83;56.64
79236;BME280;69062;47.460;18.812;2023-05-10T02:12:27;100378.56;;;19.82;56.73
79236;BME280;69062;47.460;18.812;2023-05-10T02:13:32;100380.25;;;19.83;56.50
79236;BME280;69062;47.460;18.812;2023-05-10T02:14:36;100383.06;;;19.82;56.28
79236;BME280;69062;47.460;18.812;2023-05-10T02:15:40;100374.88;;;19.83;56.66
79236;BME280;69062;47.460;18.812;2023-05-10T02:16:42;100369.53;;;19.83;56.50
79236;BME280;69062;47.460;18.812;2023-05-10T02:17:46;100373.19;;;19.82;56.78
79236;BME280;69062;47.460;18.812;2023-05-10T02:18:48;100378.56;;;19.82;56.54
79236;BME280;69062;47.460;18.812;2023-05-10T02:19:51;100378.56;;;19.82;56.61
79236;BME280;69062;47.460;18.812;2023-05-10T02:20:55;100371.50;;;19.81;56.92
79236;BME280;69062;47.460;18.812;2023-05-10T02:21:59;100376.84;;;19.81;56.72
79236;BME280;69062;47.460;18.812;2023-05-10T02:23:03;100373.19;;;19.82;56.82
79236;BME280;69062;47.460;18.812;2023-05-10T02:24:05;100367.13;;;19.80;56.75
79236;BME280;69062;47.460;18.812;2023-05-10T02:25:08;100370.66;;;19.81;56.82
79236;BME280;69062;47.460;18.812;2023-05-10T02:26:12;100368.94;;;19.80;56.71
79236;BME280;69062;47.460;18.812;2023-05-10T02:27:15;100367.13;;;19.80;56.76
79236;BME280;69062;47.460;18.812;2023-05-10T02:28:19;100361.91;;;19.79;57.10
79236;BME280;69062;47.460;18.812;2023-05-10T02:29:25;100365.41;;;19.79;56.84
79236;BME280;69062;47.460;18.812;2023-05-10T02:30:28;100368.94;;;19.80;56.85
79236;BME280;69062;47.460;18.812;2023-05-10T02:31:32;100362.75;;;19.79;56.94
79236;BME280;69062;47.460;18.812;2023-05-10T02:32:35;100359.34;;;19.77;57.08
79236;BME280;69062;47.460;18.812;2023-05-10T02:33:39;100371.78;;;19.78;56.96
79236;BME280;69062;47.460;18.812;2023-05-10T02:34:42;100365.56;;;19.78;56.98
79236;BME280;69062;47.460;18.812;2023-05-10T02:35:46;100370.06;;;19.77;57.07
79236;BME280;69062;47.460;18.812;2023-05-10T02:36:50;100372.63;;;19.79;56.95
79236;BME280;69062;47.460;18.812;2023-05-10T02:37:53;100373.47;;;19.79;57.08
79236;BME280;69062;47.460;18.812;2023-05-10T02:38:56;100375.44;;;19.77;57.12
79236;BME280;69062;47.460;18.812;2023-05-10T02:39:59;100373.59;;;19.78;57.09
79236;BME280;69062;47.460;18.812;2023-05-10T02:41:04;100371.78;;;19.78;56.92
79236;BME280;69062;47.460;18.812;2023-05-10T02:42:06;100380.78;;;19.77;57.31
79236;BME280;69062;47.460;18.812;2023-05-10T02:43:12;100368.34;;;19.76;57.00
79236;BME280;69062;47.460;18.812;2023-05-10T02:44:15;100371.03;;;19.76;56.92
79236;BME280;69062;47.460;18.812;2023-05-10T02:45:20;100370.19;;;19.76;57.07
79236;BME280;69062;47.460;18.812;2023-05-10T02:46:23;100371.16;;;19.75;56.96
79236;BME280;69062;47.460;18.812;2023-05-10T02:47:24;100372.00;;;19.75;57.01
79236;BME280;69062;47.460;18.812;2023-05-10T02:48:26;100369.31;;;19.75;56.90
79236;BME280;69062;47.460;18.812;2023-05-10T02:49:28;100366.66;;;19.75;57.22
79236;BME280;69062;47.460;18.812;2023-05-10T02:50:32;100370.31;;;19.74;57.14
79236;BME280;69062;47.460;18.812;2023-05-10T02:51:37;100368.63;;;19.73;57.14
79236;BME280;69062;47.460;18.812;2023-05-10T02:52:51;100370.31;;;19.74;57.07
79236;BME280;69062;47.460;18.812;2023-05-10T02:53:57;100364.09;;;19.74;57.14
79236;BME280;69062;47.460;18.812;2023-05-10T02:55:04;100374.97;;;19.72;57.17
79236;BME280;69062;47.460;18.812;2023-05-10T02:56:12;100373.97;;;19.73;57.03
79236;BME280;69062;47.460;18.812;2023-05-10T02:57:28;100371.28;;;19.73;57.08
79236;BME280;69062;47.460;18.812;2023-05-10T02:58:31;100373.13;;;19.73;57.22
79236;BME280;69062;47.460;18.812;2023-05-10T02:59:32;100367.78;;;19.73;57.15
79236;BME280;69062;47.460;18.812;2023-05-10T03:00:34;100370.59;;;19.71;57.18
79236;BME280;69062;47.460;18.812;2023-05-10T03:01:37;100369.75;;;19.71;57.09
79236;BME280;69062;47.460;18.812;2023-05-10T03:02:39;100364.25;;;19.72;57.12
79236;BME280;69062;47.460;18.812;2023-05-10T03:03:40;100359.00;;;19.71;57.29
79236;BME280;69062;47.460;18.812;2023-05-10T03:04:42;100365.22;;;19.71;57.11
79236;BME280;69062;47.460;18.812;2023-05-10T03:05:43;100358.16;;;19.70;57.21
79236;BME280;69062;47.460;18.812;2023-05-10T03:06:44;100359.00;;;19.71;57.06
79236;BME280;69062;47.460;18.812;2023-05-10T03:07:47;100366.91;;;19.72;57.08
79236;BME280;69062;47.460;18.812;2023-05-10T03:08:49;100365.22;;;19.71;57.18
79236;BME280;69062;47.460;18.812;2023-05-10T03:09:51;100362.66;;;19.70;57.22
79236;BME280;69062;47.460;18.812;2023-05-10T03:13:14;100366.91;;;19.72;57.19
79236;BME280;69062;47.460;18.812;2023-05-10T03:16:01;100370.69;;;19.70;57.23
79236;BME280;69062;47.460;18.812;2023-05-10T03:18:50;100368.00;;;19.70;57.32
79236;BME280;69062;47.460;18.812;2023-05-10T03:20:03;100369.75;;;19.71;57.31
79236;BME280;69062;47.460;18.812;2023-05-10T03:21:07;100370.81;;;19.68;57.36
79236;BME280;69062;47.460;18.812;2023-05-10T03:22:14;100368.00;;;19.70;57.36
79236;BME280;69062;47.460;18.812;2023-05-10T03:23:31;100368.00;;;19.70;57.26
79236;BME280;69062;47.460;18.812;2023-05-10T03:24:37;100372.53;;;19.69;57.46
79236;BME280;69062;47.460;18.812;2023-05-10T03:25:41;100370.69;;;19.70;57.55
79236;BME280;69062;47.460;18.812;2023-05-10T03:26:46;100354.88;;;19.67;57.45
79236;BME280;69062;47.460;18.812;2023-05-10T03:27:51;100368.00;;;19.70;57.43
79236;BME280;69062;47.460;18.812;2023-05-10T03:28:54;100364.63;;;19.68;57.33
79236;BME280;69062;47.460;18.812;2023-05-10T03:29:57;100365.59;;;19.67;57.56
79236;BME280;69062;47.460;18.812;2023-05-10T03:30:59;100369.13;;;19.67;57.53
79236;BME280;69062;47.460;18.812;2023-05-10T03:32:01;100362.91;;;19.67;57.47
79236;BME280;69062;47.460;18.812;2023-05-10T03:33:05;100364.63;;;19.68;57.46
79236;BME280;69062;47.460;18.812;2023-05-10T03:34:14;100370.13;;;19.66;57.43
79236;BME280;69062;47.460;18.812;2023-05-10T03:35:16;100361.34;;;19.64;57.25
79236;BME280;69062;47.460;18.812;2023-05-10T03:36:19;100359.38;;;19.66;57.38
79236;BME280;69062;47.460;18.812;2023-05-10T03:37:20;100367.28;;;19.68;57.45
79236;BME280;69062;47.460;18.812;2023-05-10T03:38:21;100363.91;;;19.66;57.37
79236;BME280;69062;47.460;18.812;2023-05-10T03:39:23;100363.91;;;19.66;57.57
79236;BME280;69062;47.460;18.812;2023-05-10T03:40:31;100362.06;;;19.66;57.57
79236;BME280;69062;47.460;18.812;2023-05-10T03:41:33;100371.09;;;19.65;57.63
79236;BME280;69062;47.460;18.812;2023-05-10T03:42:35;100364.88;;;19.65;57.58
79236;BME280;69062;47.460;18.812;2023-05-10T03:43:36;100358.69;;;19.64;57.51
79236;BME280;69062;47.460;18.812;2023-05-10T03:44:41;100365.72;;;19.65;57.42
79236;BME280;69062;47.460;18.812;2023-05-10T03:45:43;100364.75;;;19.66;57.49
79236;BME280;69062;47.460;18.812;2023-05-10T03:46:44;100364.03;;;19.64;57.46
79236;BME280;69062;47.460;18.812;2023-05-10T03:47:46;100366.59;;;19.66;57.31
79236;BME280;69062;47.460;18.812;2023-05-10T03:48:48;100369.41;;;19.64;57.51
79236;BME280;69062;47.460;18.812;2023-05-10T03:49:49;100367.69;;;19.63;57.65
79236;BME280;69062;47.460;18.812;2023-05-10T03:50:50;100369.41;;;19.64;57.47
79236;BME280;69062;47.460;18.812;2023-05-10T03:51:52;100365.72;;;19.65;57.34
79236;BME280;69062;47.460;18.812;2023-05-10T03:52:53;100365.03;;;19.63;57.50
79236;BME280;69062;47.460;18.812;2023-05-10T03:53:54;100356.09;;;19.63;57.62
79236;BME280;69062;47.460;18.812;2023-05-10T03:54:56;100364.13;;;19.63;57.37
79236;BME280;69062;47.460;18.812;2023-05-10T03:55:58;100359.66;;;19.63;57.49
79236;BME280;69062;47.460;18.812;2023-05-10T03:57:00;100364.03;;;19.64;57.42
79236;BME280;69062;47.460;18.812;2023-05-10T03:58:02;100355.25;;;19.62;57.49
79236;BME280;69062;47.460;18.812;2023-05-10T03:59:04;100356.09;;;19.63;57.73
79236;BME280;69062;47.460;18.812;2023-05-10T04:00:09;100365.97;;;19.62;57.69
79236;BME280;69062;47.460;18.812;2023-05-10T04:01:16;100363.28;;;19.62;57.46
79236;BME280;69062;47.460;18.812;2023-05-10T04:02:18;100363.19;;;19.64;57.63
79236;BME280;69062;47.460;18.812;2023-05-10T04:03:19;100366.81;;;19.63;57.37
79236;BME280;69062;47.460;18.812;2023-05-10T04:04:21;100365.97;;;19.62;57.40
79236;BME280;69062;47.460;18.812;2023-05-10T04:05:25;100367.69;;;19.63;57.36
79236;BME280;69062;47.460;18.812;2023-05-10T04:06:27;100364.28;;;19.61;57.53
79236;BME280;69062;47.460;18.812;2023-05-10T04:07:30;100366.97;;;19.61;57.61
79236;BME280;69062;47.460;18.812;2023-05-10T04:08:31;100365.97;;;19.62;57.58
79236;BME280;69062;47.460;18.812;2023-05-10T04:09:32;100364.13;;;19.63;57.58
79236;BME280;69062;47.460;18.812;2023-05-10T04:10:34;100360.63;;;19.62;57.67
79236;BME280;69062;47.460;18.812;2023-05-10T04:11:35;100365.13;;;19.62;57.42
79236;BME280;69062;47.460;18.812;2023-05-10T04:12:37;100365.03;;;19.63;57.67
79236;BME280;69062;47.460;18.812;2023-05-10T04:13:38;100365.97;;;19.62;57.72
79236;BME280;69062;47.460;18.812;2023-05-10T04:14:39;100367.81;;;19.62;57.66
79236;BME280;69062;47.460;18.812;2023-05-10T04:15:41;100363.28;;;19.62;57.80
79236;BME280;69062;47.460;18.812;2023-05-10T04:16:42;100365.97;;;19.62;57.81
79236;BME280;69062;47.460;18.812;2023-05-10T04:17:44;100367.81;;;19.62;57.75
79236;BME280;69062;47.460;18.812;2023-05-10T04:18:45;100367.94;;;19.60;57.89
79236;BME280;69062;47.460;18.812;2023-05-10T04:19:47;100370.50;;;19.62;57.93
79236;BME280;69062;47.460;18.812;2023-05-10T04:20:48;100368.66;;;19.62;57.81
79236;BME280;69062;47.460;18.812;2023-05-10T04:21:49;100363.28;;;19.62;57.73
79236;BME280;69062;47.460;18.812;2023-05-10T04:22:51;100372.19;;;19.63;57.82
79236;BME280;69062;47.460;18.812;2023-05-10T04:23:52;100371.34;;;19.62;57.79
79236;BME280;69062;47.460;18.812;2023-05-10T04:24:53;100368.78;;;19.61;57.91
79236;BME280;69062;47.460;18.812;2023-05-10T04:26:04;100373.16;;;19.62;57.74
79236;BME280;69062;47.460;18.812;2023-05-10T04:27:05;100379.63;;;19.59;57.82
79236;BME280;69062;47.460;18.812;2023-05-10T04:28:06;100376.69;;;19.62;57.77
79236;BME280;69062;47.460;18.812;2023-05-10T04:29:08;100377.69;;;19.61;57.70
79236;BME280;69062;47.460;18.812;2023-05-10T04:30:09;100375.00;;;19.61;57.85
79236;BME280;69062;47.460;18.812;2023-05-10T04:31:11;100374.16;;;19.61;57.82
79236;BME280;69062;47.460;18.812;2023-05-10T04:32:13;100378.66;;;19.60;57.75
79236;BME280;69062;47.460;18.812;2023-05-10T04:33:14;100379.38;;;19.62;57.91
79236;BME280;69062;47.460;18.812;2023-05-10T04:34:16;100383.88;;;19.62;57.79
79236;BME280;69062;47.460;18.812;2023-05-10T04:35:17;100381.19;;;19.62;57.70
79236;BME280;69062;47.460;18.812;2023-05-10T04:36:18;100377.69;;;19.61;57.72
79236;BME280;69062;47.460;18.812;2023-05-10T04:37:20;100380.34;;;19.61;57.67
79236;BME280;69062;47.460;18.812;2023-05-10T04:38:22;100375.00;;;19.61;57.82
79236;BME280;69062;47.460;18.812;2023-05-10T04:39:23;100384.72;;;19.62;57.72
79236;BME280;69062;47.460;18.812;2023-05-10T04:40:25;100379.38;;;19.62;57.68
79236;BME280;69062;47.460;18.812;2023-05-10T04:41:27;100375.84;;;19.62;57.65
79236;BME280;69062;47.460;18.812;2023-05-10T04:42:28;100374.00;;;19.62;57.76
79236;BME280;69062;47.460;18.812;2023-05-10T04:43:30;100380.34;;;19.61;57.71
79236;BME280;69062;47.460;18.812;2023-05-10T04:44:32;100378.53;;;19.62;57.82
79236;BME280;69062;47.460;18.812;2023-05-10T04:45:33;100375.84;;;19.62;57.88
79236;BME280;69062;47.460;18.812;2023-05-10T04:46:35;100373.16;;;19.62;57.88
79236;BME280;69062;47.460;18.812;2023-05-10T04:47:36;100379.50;;;19.61;57.90
79236;BME280;69062;47.460;18.812;2023-05-10T04:48:38;100383.78;;;19.63;57.83
79236;BME280;69062;47.460;18.812;2023-05-10T04:49:39;100382.06;;;19.62;57.76
79236;BME280;69062;47.460;18.812;2023-05-10T04:50:40;100377.53;;;19.63;57.72
79236;BME280;69062;47.460;18.812;2023-05-10T04:51:42;100375.75;;;19.63;57.74
79236;BME280;69062;47.460;18.812;2023-05-10T04:52:43;100373.16;;;19.62;58.13
79236;BME280;69062;47.460;18.812;2023-05-10T04:53:45;100377.44;;;19.64;57.70
79236;BME280;69062;47.460;18.812;2023-05-10T04:54:46;100376.59;;;19.64;57.74
79236;BME280;69062;47.460;18.812;2023-05-10T04:55:48;100380.22;;;19.63;57.63
79236;BME280;69062;47.460;18.812;2023-05-10T04:56:50;100380.13;;;19.64;57.75
79236;BME280;69062;47.460;18.812;2023-05-10T04:57:51;100376.59;;;19.64;57.65
79236;BME280;69062;47.460;18.812;2023-05-10T04:58:53;100380.97;;;19.65;57.65
79236;BME280;69062;47.460;18.812;2023-05-10T04:59:54;100380.97;;;19.65;57.54
79236;BME280;69062;47.460;18.812;2023-05-10T05:00:56;100374.75;;;19.64;57.75
79236;BME280;69062;47.460;18.812;2023-05-10T05:01:57;100378.28;;;19.65;57.72
79236;BME280;69062;47.460;18.812;2023-05-10T05:02:59;100378.28;;;19.65;57.79
79236;BME280;69062;47.460;18.812;2023-05-10T05:04:00;100376.44;;;19.65;58.04
79236;BME280;69062;47.460;18.812;2023-05-10T05:05:02;100379.00;;;19.67;57.72
79236;BME280;69062;47.460;18.812;2023-05-10T05:06:04;100381.69;;;19.67;57.84
79236;BME280;69062;47.460;18.812;2023-05-10T05:07:05;100381.69;;;19.67;57.60
79236;BME280;69062;47.460;18.812;2023-05-10T05:08:07;100370.13;;;19.66;57.63
79236;BME280;69062;47.460;18.812;2023-05-10T05:09:08;100386.91;;;19.68;57.83
79236;BME280;69062;47.460;18.812;2023-05-10T05:10:11;100380.56;;;19.69;57.27
79236;BME280;69062;47.460;18.812;2023-05-10T05:11:12;100392.03;;;19.71;57.88
79236;BME280;69062;47.460;18.812;2023-05-10T05:12:14;100381.41;;;19.70;57.67
79236;BME280;69062;47.460;18.812;2023-05-10T05:13:15;100383.00;;;19.72;57.65
79236;BME280;69062;47.460;18.812;2023-05-10T05:14:16;100383.84;;;19.73;57.66
79236;BME280;69062;47.460;18.812;2023-05-10T05:15:18;100380.31;;;19.72;57.54
79236;BME280;69062;47.460;18.812;2023-05-10T05:16:19;100382.00;;;19.73;57.59
79236;BME280;69062;47.460;18.812;2023-05-10T05:17:21;100380.19;;;19.74;57.75
79236;BME280;69062;47.460;18.812;2023-05-10T05:18:22;100391.63;;;19.76;57.66
79236;BME280;69062;47.460;18.812;2023-05-10T05:19:23;100385.53;;;19.74;57.60
79236;BME280;69062;47.460;18.812;2023-05-10T05:20:25;100381.88;;;19.75;57.74
79236;BME280;69062;47.460;18.812;2023-05-10T05:21:26;100384.41;;;19.76;57.82
79236;BME280;69062;47.460;18.812;2023-05-10T05:22:28;100377.13;;;19.78;57.81
79236;BME280;69062;47.460;18.812;2023-05-10T05:23:29;100386.88;;;19.79;57.71
79236;BME280;69062;47.460;18.812;2023-05-10T05:24:35;100385.16;;;19.78;57.75
79236;BME280;69062;47.460;18.812;2023-05-10T05:25:37;100394.91;;;19.79;57.67
79236;BME280;69062;47.460;18.812;2023-05-10T05:26:38;100392.09;;;19.81;57.59
79236;BME280;69062;47.460;18.812;2023-05-10T05:27:40;100388.56;;;19.80;57.73
79236;BME280;69062;47.460;18.812;2023-05-10T05:28:41;100390.41;;;19.80;57.73
79236;BME280;69062;47.460;18.812;2023-05-10T05:29:43;100392.09;;;19.81;57.54
79236;BME280;69062;47.460;18.812;2023-05-10T05:30:44;100391.94;;;19.82;57.62
79236;BME280;69062;47.460;18.812;2023-05-10T05:31:45;100385.59;;;19.83;57.60
79236;BME280;69062;47.460;18.812;2023-05-10T05:32:47;100395.47;;;19.83;57.69
79236;BME280;69062;47.460;18.812;2023-05-10T05:33:48;100389.88;;;19.86;57.66
79236;BME280;69062;47.460;18.812;2023-05-10T05:34:50;100396.22;;;19.85;57.69
79236;BME280;69062;47.460;18.812;2023-05-10T05:35:52;100397.94;;;19.86;57.65
79236;BME280;69062;47.460;18.812;2023-05-10T05:36:53;100391.56;;;19.87;57.81
79236;BME280;69062;47.460;18.812;2023-05-10T05:37:55;100405.13;;;19.86;57.67
79236;BME280;69062;47.460;18.812;2023-05-10T05:38:57;100396.09;;;19.87;57.71
79236;BME280;69062;47.460;18.812;2023-05-10T05:39:58;100404.84;;;19.89;57.72
79236;BME280;69062;47.460;18.812;2023-05-10T05:41:01;100406.69;;;19.88;57.52
79236;BME280;69062;47.460;18.812;2023-05-10T05:42:02;100406.53;;;19.90;57.54
79236;BME280;69062;47.460;18.812;2023-05-10T05:43:04;100395.69;;;19.91;57.56